createdAt,value
2023-03-10T00:02:40.655Z,7.90
2023-03-10T00:06:08.426Z,7.90
2023-03-10T00:09:36.277Z,7.93
2023-03-10T00:13:03.941Z,7.94
2023-03-10T00:16:32.290Z,8.00
2023-03-10T00:20:00.635Z,8.06
2023-03-10T00:23:28.656Z,8.08
2023-03-10T00:26:40.631Z,8.10
2023-03-10T00:30:08.604Z,8.11
2023-03-10T00:33:37.059Z,8.12
2023-03-10T00:37:05.376Z,8.16
2023-03-10T00:40:17.970Z,8.20
2023-03-10T00:43:45.724Z,8.23
2023-03-10T00:47:13.936Z,8.26
2023-03-10T00:50:41.780Z,8.27
2023-03-10T00:53:50.788Z,8.27
2023-03-10T00:57:19.285Z,8.23
2023-03-10T01:00:46.909Z,8.14
2023-03-10T01:03:57.605Z,8.08
2023-03-10T01:07:06.703Z,8.03
2023-03-10T01:10:34.489Z,7.96
2023-03-10T01:14:02.603Z,7.92
2023-03-10T01:17:30.524Z,7.90
2023-03-10T01:20:58.154Z,7.88
2023-03-10T01:24:07.037Z,7.85
2023-03-10T01:27:34.863Z,7.84
2023-03-10T01:31:04.016Z,7.82
2023-03-10T01:34:31.717Z,7.83
2023-03-10T01:37:42.812Z,7.85
2023-03-10T01:41:09.054Z,7.89
2023-03-10T01:44:36.897Z,7.91
2023-03-10T01:48:04.929Z,7.94
2023-03-10T01:51:33.050Z,7.98
2023-03-10T01:55:01.087Z,7.97
2023-03-10T01:58:09.810Z,7.95
2023-03-10T02:01:37.543Z,7.92
2023-03-10T02:05:05.445Z,7.90
2023-03-10T02:08:33.270Z,7.86
2023-03-10T02:12:01.298Z,7.83
2023-03-10T02:15:29.299Z,7.82
2023-03-10T02:18:57.316Z,7.80
2023-03-10T02:22:25.144Z,7.80
2023-03-10T02:25:33.745Z,7.80
2023-03-10T02:29:02.071Z,7.80
2023-03-10T02:32:10.950Z,7.82
2023-03-10T02:35:19.364Z,7.85
2023-03-10T02:38:47.321Z,7.87
2023-03-10T02:42:15.037Z,7.90
2023-03-10T02:45:24.413Z,7.93
2023-03-10T02:48:33.308Z,7.91
2023-03-10T02:51:50.048Z,7.91
2023-03-10T02:55:18.014Z,7.92
2023-03-10T02:58:45.688Z,7.90
2023-03-10T03:01:54.763Z,7.90
2023-03-10T03:05:23.053Z,7.88
2023-03-10T03:08:50.782Z,7.86
2023-03-10T03:12:18.730Z,7.83
2023-03-10T03:15:46.470Z,7.81
2023-03-10T03:19:14.227Z,7.78
2023-03-10T03:22:41.967Z,7.76
2023-03-10T03:26:09.861Z,7.79
2023-03-10T03:29:38.050Z,7.79
2023-03-10T03:33:05.802Z,7.74
2023-03-10T03:36:33.986Z,7.65
2023-03-10T03:40:10.771Z,7.61
2023-03-10T03:43:39.222Z,7.61
2023-03-10T03:46:48.146Z,7.61
2023-03-10T03:49:56.909Z,7.63
2023-03-10T03:53:05.804Z,7.64
2023-03-10T03:55:59.737Z,7.63
2023-03-10T03:59:27.570Z,7.65
2023-03-10T04:02:18.229Z,7.70
2023-03-10T04:05:45.878Z,7.75
2023-03-10T04:08:54.595Z,7.79
2023-03-10T04:12:03.431Z,7.85
2023-03-10T04:15:13.031Z,7.92
2023-03-10T04:18:40.809Z,7.98
2023-03-10T04:22:08.658Z,8.05
2023-03-10T04:25:36.633Z,8.06
2023-03-10T04:29:04.674Z,8.10
2023-03-10T04:32:32.568Z,8.11
2023-03-10T04:35:44.722Z,8.11
2023-03-10T04:39:12.356Z,8.11
2023-03-10T04:42:40.096Z,8.11
2023-03-10T04:45:49.316Z,8.13
2023-03-10T04:49:17.087Z,8.13
2023-03-10T04:52:45.300Z,8.15
2023-03-10T04:55:54.512Z,8.15
2023-03-10T04:59:03.512Z,8.16
2023-03-10T05:02:31.222Z,8.15
2023-03-10T05:05:47.818Z,8.17
2023-03-10T05:08:57.942Z,8.17
2023-03-10T05:12:25.798Z,8.18
2023-03-10T05:15:53.479Z,8.17
2023-03-10T05:19:21.261Z,8.12
2023-03-10T05:22:11.635Z,8.08
2023-03-10T05:25:39.869Z,8.04
2023-03-10T05:29:07.884Z,7.99
2023-03-10T05:32:36.074Z,7.97
2023-03-10T05:35:45.149Z,7.95
2023-03-10T05:38:15.340Z,7.94
2023-03-10T05:41:43.035Z,7.93
2023-03-10T05:45:10.869Z,7.92
2023-03-10T05:48:38.635Z,7.94
2023-03-10T05:52:06.626Z,8.01
2023-03-10T05:55:34.418Z,8.10
2023-03-10T05:58:45.252Z,8.18
2023-03-10T06:02:13.024Z,8.24
2023-03-10T06:05:40.672Z,8.31
2023-03-10T06:09:08.553Z,8.39
2023-03-10T06:12:36.455Z,8.40
2023-03-10T06:16:04.665Z,8.47
2023-03-10T06:19:32.392Z,8.54
2023-03-10T06:23:00.759Z,8.61
2023-03-10T06:26:28.816Z,8.69
2023-03-10T06:29:37.506Z,8.77
2023-03-10T06:32:45.470Z,8.90
2023-03-10T06:35:36.161Z,8.99
2023-03-10T06:39:04.270Z,9.12
2023-03-10T06:42:32.387Z,9.25
2023-03-10T06:46:00.353Z,9.39
2023-03-10T06:49:28.334Z,9.53
2023-03-10T06:52:37.410Z,9.67
2023-03-10T06:56:06.246Z,9.81
2023-03-10T06:59:34.126Z,9.98
2023-03-10T07:03:02.441Z,10.15
2023-03-10T07:06:30.339Z,10.37
2023-03-10T07:09:19.828Z,10.53
2023-03-10T07:12:28.652Z,10.70
2023-03-10T07:15:56.398Z,10.90
2023-03-10T07:19:24.216Z,11.13
2023-03-10T07:22:51.996Z,11.29
2023-03-10T07:26:19.786Z,11.46
2023-03-10T07:29:47.613Z,11.63
2023-03-10T07:33:15.691Z,11.65
2023-03-10T07:36:24.576Z,11.73
2023-03-10T07:39:52.373Z,11.81
2023-03-10T07:43:20.417Z,11.90
2023-03-10T07:46:32.166Z,12.09
2023-03-10T07:49:39.686Z,12.18
2023-03-10T07:52:53.362Z,12.32
2023-03-10T07:56:03.873Z,12.50
2023-03-10T07:59:15.690Z,12.69
2023-03-10T08:02:44.018Z,12.88
2023-03-10T08:05:33.703Z,13.05
2023-03-10T08:09:01.761Z,13.24
2023-03-10T08:12:12.067Z,13.37
2023-03-10T08:15:29.398Z,13.57
2023-03-10T08:18:38.284Z,13.74
2023-03-10T08:22:06.202Z,13.93
2023-03-10T08:25:15.209Z,14.11
2023-03-10T08:28:43.026Z,14.29
2023-03-10T08:31:53.021Z,14.38
2023-03-10T08:35:02.022Z,14.43
2023-03-10T08:38:11.750Z,14.58
2023-03-10T08:41:28.580Z,14.72
2023-03-10T08:44:13.300Z,14.79
2023-03-10T08:46:52.384Z,14.93
2023-03-10T08:50:20.441Z,15.13
2023-03-10T08:53:49.728Z,15.33
2023-03-10T08:56:59.777Z,15.39
2023-03-10T09:00:07.602Z,15.50
2023-03-10T09:03:35.521Z,15.67
2023-03-10T09:06:44.533Z,15.70
2023-03-10T09:09:33.318Z,15.87
2023-03-10T09:13:12.718Z,16.02
2023-03-10T09:15:43.069Z,15.95
2023-03-10T09:18:51.802Z,16.06
2023-03-10T09:22:03.682Z,16.16
2023-03-10T09:25:31.519Z,16.21
2023-03-10T09:28:28.231Z,16.25
2023-03-10T09:31:57.427Z,16.43
2023-03-10T09:34:54.283Z,16.45
2023-03-10T09:37:50.686Z,16.32
2023-03-10T09:40:59.487Z,16.30
2023-03-10T09:44:09.652Z,16.32
2023-03-10T09:46:46.561Z,16.32
2023-03-10T09:49:56.762Z,16.49
2023-03-10T09:53:06.334Z,16.58
2023-03-10T09:55:57.576Z,16.66
2023-03-10T09:59:25.649Z,16.77
2023-03-10T10:02:33.918Z,16.69
2023-03-10T10:05:49.849Z,16.70
2023-03-10T10:09:17.629Z,16.77
2023-03-10T10:12:29.563Z,16.85
2023-03-10T10:16:18.251Z,16.79
2023-03-10T10:19:25.077Z,16.75
2023-03-10T10:22:53.311Z,16.77
2023-03-10T10:26:20.987Z,16.77
2023-03-10T10:29:48.926Z,16.69
2023-03-10T10:33:16.816Z,16.71
2023-03-10T10:36:33.269Z,16.83
2023-03-10T10:39:42.239Z,16.83
2023-03-10T10:42:53.078Z,16.88
2023-03-10T10:46:20.935Z,16.80
2023-03-10T10:49:48.784Z,16.83
2023-03-10T10:52:57.394Z,16.85
2023-03-10T10:56:06.168Z,17.04
2023-03-10T10:59:34.027Z,17.02
2023-03-10T11:02:42.692Z,17.05
2023-03-10T11:06:10.538Z,16.90
2023-03-10T11:09:38.196Z,16.93
2023-03-10T11:13:05.908Z,16.95
2023-03-10T11:15:55.516Z,16.92
2023-03-10T11:19:04.586Z,16.92
2023-03-10T11:22:32.358Z,16.64
2023-03-10T11:26:00.156Z,16.51
2023-03-10T11:29:28.187Z,16.54
2023-03-10T11:32:56.152Z,16.61
2023-03-10T11:36:23.864Z,16.63
2023-03-10T11:39:51.832Z,16.52
2023-03-10T11:43:19.604Z,16.23
2023-03-10T11:46:47.837Z,16.40
2023-03-10T11:50:15.705Z,16.54
2023-03-10T11:53:44.443Z,16.56
2023-03-10T11:57:13.014Z,16.68
2023-03-10T12:00:22.096Z,16.78
2023-03-10T12:03:50.260Z,16.71
2023-03-10T12:06:39.254Z,16.40
2023-03-10T12:10:08.596Z,16.38
2023-03-10T12:13:16.863Z,16.31
2023-03-10T12:16:44.706Z,16.20
2023-03-10T12:20:12.866Z,16.05
2023-03-10T12:23:11.386Z,15.99
2023-03-10T12:26:19.734Z,16.01
2023-03-10T12:29:28.634Z,15.95
2023-03-10T12:32:56.540Z,15.84
2023-03-10T12:36:27.571Z,15.63
2023-03-10T12:39:55.327Z,15.53
2023-03-10T12:42:45.827Z,15.65
2023-03-10T12:46:15.178Z,15.72
2023-03-10T12:49:05.595Z,15.73
2023-03-10T12:52:31.862Z,15.63
2023-03-10T12:55:41.084Z,15.53
2023-03-10T12:59:06.505Z,15.44
2023-03-10T13:02:15.379Z,15.38
2023-03-10T13:09:10.567Z,15.20
2023-03-10T13:15:42.637Z,14.98
2023-03-10T13:19:10.648Z,14.80
2023-03-10T13:22:39.109Z,14.70
2023-03-10T13:29:35.645Z,14.69
2023-03-10T13:33:03.392Z,14.62
2023-03-10T13:36:31.338Z,14.63
2023-03-10T13:39:55.835Z,14.61
2023-03-10T13:43:24.056Z,14.53
2023-03-10T13:46:48.337Z,14.41
2023-03-10T13:49:53.090Z,14.46
2023-03-10T13:53:20.699Z,14.54
2023-03-10T13:56:29.896Z,14.49
2023-03-10T13:59:54.253Z,14.33
2023-03-10T14:03:10.809Z,14.40
2023-03-10T14:06:39.017Z,14.42
2023-03-10T14:09:27.879Z,14.47
2023-03-10T14:12:55.912Z,14.47
2023-03-10T14:16:32.279Z,14.57
2023-03-10T14:20:00.452Z,14.48
2023-03-10T14:23:28.601Z,14.51
2023-03-10T14:26:24.607Z,14.62
2023-03-10T14:29:52.399Z,14.68
2023-03-10T14:33:00.867Z,14.57
2023-03-10T14:36:28.612Z,14.49
2023-03-10T14:39:56.537Z,14.37
2023-03-10T14:43:24.400Z,14.34
2023-03-10T14:46:52.979Z,14.26
2023-03-10T14:50:20.336Z,14.19
2023-03-10T14:53:48.205Z,14.14
2023-03-10T14:56:37.621Z,14.09
2023-03-10T14:59:45.539Z,13.99
2023-03-10T15:03:13.426Z,13.93
2023-03-10T15:06:41.238Z,13.78
2023-03-10T15:09:54.571Z,13.70
2023-03-10T15:13:18.698Z,13.54
2023-03-10T15:16:46.459Z,13.53
2023-03-10T15:20:14.260Z,13.43
2023-03-10T15:23:23.197Z,13.44
2023-03-10T15:26:50.954Z,13.43
2023-03-10T15:29:59.743Z,13.35
2023-03-10T15:33:27.538Z,13.25
2023-03-10T15:36:55.500Z,13.16
2023-03-10T15:40:23.440Z,13.13
2023-03-10T15:43:51.261Z,13.02
2023-03-10T15:47:18.981Z,13.04
2023-03-10T15:50:47.471Z,13.19
2023-03-10T15:54:16.105Z,13.19
2023-03-10T15:57:24.506Z,13.06
2023-03-10T16:00:33.319Z,12.97
2023-03-10T16:04:01.161Z,12.97
2023-03-10T16:07:29.254Z,12.94
2023-03-10T16:10:36.885Z,12.94
2023-03-10T16:14:04.561Z,12.82
2023-03-10T16:17:32.417Z,12.70
2023-03-10T16:21:00.129Z,12.60
2023-03-10T16:24:09.980Z,12.59
2023-03-10T16:27:38.868Z,12.49
2023-03-10T16:31:06.884Z,12.38
2023-03-10T16:34:14.647Z,12.32
2023-03-10T16:37:42.358Z,12.22
2023-03-10T16:41:10.189Z,12.19
2023-03-10T16:44:38.176Z,12.11
2023-03-10T16:48:06.348Z,12.07
2023-03-10T16:51:34.064Z,11.93
2023-03-10T16:55:02.052Z,11.88
2023-03-10T16:58:29.987Z,11.81
2023-03-10T17:01:58.327Z,11.75
2023-03-10T17:05:22.832Z,11.77
2023-03-10T17:08:11.854Z,11.76
2023-03-10T17:11:39.632Z,11.75
2023-03-10T17:15:07.723Z,11.73
2023-03-10T17:22:31.093Z,11.67
2023-03-10T17:25:59.322Z,11.63
2023-03-10T17:29:27.264Z,11.59
2023-03-10T17:32:55.268Z,11.60
2023-03-10T17:36:23.749Z,11.60
2023-03-10T17:39:40.017Z,11.58
2023-03-10T17:43:29.604Z,11.54
2023-03-10T17:46:36.600Z,11.52
2023-03-10T17:53:38.168Z,11.41
2023-03-10T17:56:46.918Z,11.36
2023-03-10T17:59:55.827Z,11.33
2023-03-10T18:03:23.709Z,11.31
2023-03-10T18:06:51.505Z,11.28
2023-03-10T18:10:19.491Z,11.23
2023-03-10T18:13:29.450Z,11.18
2023-03-10T18:16:57.209Z,11.16
2023-03-10T18:20:25.315Z,11.13
2023-03-10T18:23:53.079Z,11.09
2023-03-10T18:27:20.747Z,11.05
2023-03-10T18:30:48.551Z,11.02
2023-03-10T18:34:16.599Z,11.00
2023-03-10T18:37:45.014Z,10.97
2023-03-10T18:41:13.344Z,10.95
2023-03-10T18:44:25.640Z,10.94
2023-03-10T18:47:53.748Z,10.93
2023-03-10T18:51:21.594Z,10.90
2023-03-10T18:54:49.401Z,10.88
2023-03-10T18:57:59.315Z,10.87
2023-03-10T19:01:16.821Z,10.84
2023-03-10T19:04:44.939Z,10.82
2023-03-10T19:08:12.817Z,10.80
2023-03-10T19:11:40.727Z,10.77
2023-03-10T19:15:08.543Z,10.79
2023-03-10T19:18:33.125Z,10.81
2023-03-10T19:22:04.157Z,10.77
2023-03-10T19:25:32.270Z,10.76
2023-03-10T19:29:00.345Z,10.71
2023-03-10T19:32:28.304Z,10.69
2023-03-10T19:35:38.609Z,10.63
2023-03-10T19:38:47.625Z,10.60
2023-03-10T19:42:15.503Z,10.61
2023-03-10T19:45:43.454Z,10.62
2023-03-10T19:49:11.442Z,10.60
2023-03-10T19:52:39.717Z,10.59
2023-03-10T19:56:07.805Z,10.56
2023-03-10T19:59:31.242Z,10.51
2023-03-10T20:02:59.303Z,10.47
2023-03-10T20:06:10.060Z,10.46
2023-03-10T20:09:37.146Z,10.51
2023-03-10T20:12:26.801Z,10.53
2023-03-10T20:15:54.771Z,10.57
2023-03-10T20:19:22.734Z,10.60
2023-03-10T20:22:15.774Z,10.61
2023-03-10T20:25:43.523Z,10.66
2023-03-10T20:29:11.296Z,10.72
2023-03-10T20:32:39.500Z,10.74
2023-03-10T20:35:28.407Z,10.74
2023-03-10T20:38:56.564Z,10.71
2023-03-10T20:42:22.503Z,10.65
2023-03-10T20:45:50.369Z,10.60
2023-03-10T20:49:18.310Z,10.55
2023-03-10T20:52:46.240Z,10.49
2023-03-10T20:56:15.564Z,10.40
2023-03-10T20:59:22.249Z,10.37
2023-03-10T21:09:53.657Z,10.13
2023-03-10T21:13:01.624Z,10.10
2023-03-10T21:19:58.432Z,9.95
2023-03-10T21:23:26.104Z,9.87
2023-03-10T21:26:54.179Z,9.83
2023-03-10T21:30:22.134Z,9.76
2023-03-10T21:37:19.550Z,9.69
2023-03-10T21:40:48.958Z,9.63
2023-03-10T21:47:42.520Z,9.54
2023-03-10T21:54:50.477Z,9.53
2023-03-10T21:58:18.758Z,9.56
2023-03-10T22:01:46.610Z,9.63
2023-03-10T22:05:14.906Z,9.68
2023-03-10T22:08:42.597Z,9.76
2023-03-10T22:12:11.294Z,9.84
2023-03-10T22:15:40.881Z,9.89
2023-03-10T22:18:44.537Z,9.94
2023-03-10T22:22:12.552Z,9.99
2023-03-10T22:25:41.088Z,10.02
2023-03-10T22:29:09.077Z,10.01
2023-03-10T22:32:36.964Z,10.00
2023-03-10T22:36:04.935Z,9.95
2023-03-10T22:39:32.558Z,9.96
2023-03-10T22:43:00.315Z,9.98
2023-03-10T22:46:28.192Z,9.95
2023-03-10T22:49:56.088Z,9.92
2023-03-10T22:53:24.183Z,9.90
2023-03-10T22:56:40.882Z,9.94
2023-03-10T23:00:08.942Z,9.91
2023-03-10T23:03:19.184Z,9.94
2023-03-10T23:06:47.453Z,10.00
2023-03-10T23:10:15.266Z,9.98
2023-03-10T23:13:43.360Z,10.01
2023-03-10T23:17:11.208Z,9.90
2023-03-10T23:20:39.409Z,9.89
2023-03-10T23:24:08.482Z,9.90
2023-03-10T23:27:36.181Z,9.88
2023-03-10T23:30:45.500Z,9.88
2023-03-10T23:34:13.954Z,9.92
2023-03-10T23:37:41.891Z,9.88
2023-03-10T23:41:09.917Z,9.92
2023-03-10T23:44:37.694Z,9.94
2023-03-10T23:47:46.309Z,9.88
2023-03-10T23:51:14.704Z,9.80
2023-03-10T23:54:42.555Z,9.79
2023-03-10T23:58:10.794Z,9.83
